sensor_id;sensor_type;location;lat;lon;timestamp;P1;durP1;ratioP1;P2;durP2;ratioP2
40198;SDS011;25906;43.536;26.068;2023-09-30T00:01:22;17.55;;;5.35;;
40198;SDS011;25906;43.536;26.068;2023-09-30T00:06:54;9.48;;;4.65;;
40198;SDS011;25906;43.536;26.068;2023-09-30T00:09:39;9.05;;;4.68;;
40198;SDS011;25906;43.536;26.068;2023-09-30T00:15:11;10.40;;;5.05;;
40198;SDS011;25906;43.536;26.068;2023-09-30T00:17:57;12.52;;;5.07;;
40198;SDS011;25906;43.536;26.068;2023-09-30T00:20:42;12.35;;;5.15;;
40198;SDS011;25906;43.536;26.068;2023-09-30T00:23:27;12.77;;;5.22;;
40198;SDS011;25906;43.536;26.068;2023-09-30T00:28:59;15.40;;;5.38;;
40198;SDS011;25906;43.536;26.068;2023-09-30T00:31:47;11.27;;;4.65;;
40198;SDS011;25906;43.536;26.068;2023-09-30T00:34:33;8.25;;;5.15;;
40198;SDS011;25906;43.536;26.068;2023-09-30T00:37:19;8.70;;;4.85;;
40198;SDS011;25906;43.536;26.068;2023-09-30T00:40:05;11.25;;;5.32;;
40198;SDS011;25906;43.536;26.068;2023-09-30T00:42:51;13.85;;;5.45;;
40198;SDS011;25906;43.536;26.068;2023-09-30T00:45:36;13.00;;;4.63;;
40198;SDS011;25906;43.536;26.068;2023-09-30T00:48:23;13.73;;;4.90;;
40198;SDS011;25906;43.536;26.068;2023-09-30T00:51:08;14.70;;;4.63;;
40198;SDS011;25906;43.536;26.068;2023-09-30T00:53:59;14.02;;;4.97;;
40198;SDS011;25906;43.536;26.068;2023-09-30T00:56:45;14.48;;;5.38;;
40198;SDS011;25906;43.536;26.068;2023-09-30T00:59:32;12.82;;;4.53;;
40198;SDS011;25906;43.536;26.068;2023-09-30T01:02:18;12.77;;;4.82;;
40198;SDS011;25906;43.536;26.068;2023-09-30T01:07:50;12.95;;;4.43;;
40198;SDS011;25906;43.536;26.068;2023-09-30T01:10:35;20.13;;;4.47;;
40198;SDS011;25906;43.536;26.068;2023-09-30T01:13:21;10.52;;;5.07;;
40198;SDS011;25906;43.536;26.068;2023-09-30T01:16:07;13.05;;;4.97;;
40198;SDS011;25906;43.536;26.068;2023-09-30T01:18:56;11.00;;;3.88;;
40198;SDS011;25906;43.536;26.068;2023-09-30T01:21:42;8.90;;;4.65;;
40198;SDS011;25906;43.536;26.068;2023-09-30T01:24:39;16.10;;;4.82;;
40198;SDS011;25906;43.536;26.068;2023-09-30T01:27:26;9.88;;;4.90;;
40198;SDS011;25906;43.536;26.068;2023-09-30T01:30:11;14.15;;;4.57;;
40198;SDS011;25906;43.536;26.068;2023-09-30T01:32:58;16.63;;;4.70;;
40198;SDS011;25906;43.536;26.068;2023-09-30T01:35:44;21.85;;;5.00;;
40198;SDS011;25906;43.536;26.068;2023-09-30T01:38:30;9.77;;;4.72;;
40198;SDS011;25906;43.536;26.068;2023-09-30T01:41:15;10.13;;;5.03;;
40198;SDS011;25906;43.536;26.068;2023-09-30T01:44:01;10.50;;;5.20;;
40198;SDS011;25906;43.536;26.068;2023-09-30T01:46:47;14.45;;;4.90;;
40198;SDS011;25906;43.536;26.068;2023-09-30T01:49:33;15.35;;;4.85;;
40198;SDS011;25906;43.536;26.068;2023-09-30T01:52:18;11.55;;;4.80;;
40198;SDS011;25906;43.536;26.068;2023-09-30T01:55:04;8.70;;;4.47;;
40198;SDS011;25906;43.536;26.068;2023-09-30T01:57:49;9.23;;;4.70;;
40198;SDS011;25906;43.536;26.068;2023-09-30T02:00:35;9.88;;;4.78;;
40198;SDS011;25906;43.536;26.068;2023-09-30T02:03:20;15.27;;;4.63;;
40198;SDS011;25906;43.536;26.068;2023-09-30T02:06:06;12.20;;;4.55;;
40198;SDS011;25906;43.536;26.068;2023-09-30T02:08:52;19.85;;;5.30;;
40198;SDS011;25906;43.536;26.068;2023-09-30T02:11:38;11.82;;;4.30;;
40198;SDS011;25906;43.536;26.068;2023-09-30T02:14:26;17.70;;;5.47;;
40198;SDS011;25906;43.536;26.068;2023-09-30T02:17:12;10.18;;;5.10;;
40198;SDS011;25906;43.536;26.068;2023-09-30T02:19:58;11.02;;;5.35;;
40198;SDS011;25906;43.536;26.068;2023-09-30T02:22:43;8.70;;;4.80;;
40198;SDS011;25906;43.536;26.068;2023-09-30T02:25:29;15.98;;;5.45;;
40198;SDS011;25906;43.536;26.068;2023-09-30T02:28:15;13.00;;;5.60;;
40198;SDS011;25906;43.536;26.068;2023-09-30T02:31:01;14.55;;;5.00;;
40198;SDS011;25906;43.536;26.068;2023-09-30T02:33:46;13.82;;;5.10;;
40198;SDS011;25906;43.536;26.068;2023-09-30T02:36:32;7.45;;;4.72;;
40198;SDS011;25906;43.536;26.068;2023-09-30T02:39:18;12.77;;;4.55;;
40198;SDS011;25906;43.536;26.068;2023-09-30T02:42:04;7.78;;;4.80;;
40198;SDS011;25906;43.536;26.068;2023-09-30T02:44:50;10.05;;;5.03;;
40198;SDS011;25906;43.536;26.068;2023-09-30T02:47:36;11.77;;;4.88;;
40198;SDS011;25906;43.536;26.068;2023-09-30T02:50:22;8.82;;;4.97;;
40198;SDS011;25906;43.536;26.068;2023-09-30T02:53:07;11.20;;;5.43;;
40198;SDS011;25906;43.536;26.068;2023-09-30T02:55:53;11.45;;;4.57;;
40198;SDS011;25906;43.536;26.068;2023-09-30T02:58:41;11.13;;;4.90;;
40198;SDS011;25906;43.536;26.068;2023-09-30T03:01:27;8.05;;;4.75;;
40198;SDS011;25906;43.536;26.068;2023-09-30T03:04:13;12.75;;;5.20;;
40198;SDS011;25906;43.536;26.068;2023-09-30T03:06:58;8.15;;;5.00;;
40198;SDS011;25906;43.536;26.068;2023-09-30T03:09:43;9.60;;;5.18;;
40198;SDS011;25906;43.536;26.068;2023-09-30T03:12:29;9.50;;;5.80;;
40198;SDS011;25906;43.536;26.068;2023-09-30T03:15:16;14.55;;;5.13;;
40198;SDS011;25906;43.536;26.068;2023-09-30T03:18:02;13.13;;;4.53;;
40198;SDS011;25906;43.536;26.068;2023-09-30T03:20:48;17.80;;;4.88;;
40198;SDS011;25906;43.536;26.068;2023-09-30T03:23:35;13.35;;;5.68;;
40198;SDS011;25906;43.536;26.068;2023-09-30T03:26:21;16.25;;;5.20;;
40198;SDS011;25906;43.536;26.068;2023-09-30T03:29:06;13.98;;;5.25;;
40198;SDS011;25906;43.536;26.068;2023-09-30T03:31:53;16.23;;;5.82;;
40198;SDS011;25906;43.536;26.068;2023-09-30T03:34:39;12.15;;;5.90;;
40198;SDS011;25906;43.536;26.068;2023-09-30T03:37:29;14.40;;;5.65;;
40198;SDS011;25906;43.536;26.068;2023-09-30T03:40:16;6.28;;;4.70;;
40198;SDS011;25906;43.536;26.068;2023-09-30T03:43:04;11.90;;;5.72;;
40198;SDS011;25906;43.536;26.068;2023-09-30T03:45:53;7.55;;;4.72;;
40198;SDS011;25906;43.536;26.068;2023-09-30T03:48:39;14.57;;;4.97;;
40198;SDS011;25906;43.536;26.068;2023-09-30T03:51:25;9.25;;;4.90;;
40198;SDS011;25906;43.536;26.068;2023-09-30T03:54:10;13.68;;;5.30;;
40198;SDS011;25906;43.536;26.068;2023-09-30T03:56:56;12.18;;;5.82;;
40198;SDS011;25906;43.536;26.068;2023-09-30T03:59:42;10.38;;;5.50;;
40198;SDS011;25906;43.536;26.068;2023-09-30T04:02:27;9.90;;;4.93;;
40198;SDS011;25906;43.536;26.068;2023-09-30T04:05:13;11.55;;;5.30;;
40198;SDS011;25906;43.536;26.068;2023-09-30T04:07:59;9.15;;;5.35;;
40198;SDS011;25906;43.536;26.068;2023-09-30T04:10:44;10.63;;;5.90;;
40198;SDS011;25906;43.536;26.068;2023-09-30T04:13:30;13.07;;;5.40;;
40198;SDS011;25906;43.536;26.068;2023-09-30T04:19:03;21.15;;;5.50;;
40198;SDS011;25906;43.536;26.068;2023-09-30T04:21:49;17.92;;;5.45;;
40198;SDS011;25906;43.536;26.068;2023-09-30T04:24:35;12.23;;;6.13;;
40198;SDS011;25906;43.536;26.068;2023-09-30T04:27:21;13.00;;;5.43;;
40198;SDS011;25906;43.536;26.068;2023-09-30T04:30:06;9.75;;;5.20;;
40198;SDS011;25906;43.536;26.068;2023-09-30T04:32:56;14.00;;;5.60;;
40198;SDS011;25906;43.536;26.068;2023-09-30T04:35:41;14.52;;;5.70;;
40198;SDS011;25906;43.536;26.068;2023-09-30T04:38:27;12.70;;;5.03;;
40198;SDS011;25906;43.536;26.068;2023-09-30T04:41:12;14.73;;;4.90;;
40198;SDS011;25906;43.536;26.068;2023-09-30T04:43:58;11.68;;;5.43;;
40198;SDS011;25906;43.536;26.068;2023-09-30T04:46:43;11.90;;;5.43;;
40198;SDS011;25906;43.536;26.068;2023-09-30T04:49:31;15.05;;;5.50;;
40198;SDS011;25906;43.536;26.068;2023-09-30T04:52:16;10.57;;;5.80;;
40198;SDS011;25906;43.536;26.068;2023-09-30T04:57:50;13.35;;;5.75;;
40198;SDS011;25906;43.536;26.068;2023-09-30T05:00:36;13.73;;;5.88;;
40198;SDS011;25906;43.536;26.068;2023-09-30T05:03:21;17.95;;;6.55;;
40198;SDS011;25906;43.536;26.068;2023-09-30T05:06:09;14.45;;;6.57;;
40198;SDS011;25906;43.536;26.068;2023-09-30T05:08:54;13.15;;;6.25;;
40198;SDS011;25906;43.536;26.068;2023-09-30T05:14:25;19.85;;;5.57;;
40198;SDS011;25906;43.536;26.068;2023-09-30T05:17:14;15.15;;;5.85;;
40198;SDS011;25906;43.536;26.068;2023-09-30T05:19:59;19.88;;;6.38;;
40198;SDS011;25906;43.536;26.068;2023-09-30T05:22:45;20.13;;;6.15;;
40198;SDS011;25906;43.536;26.068;2023-09-30T05:25:31;11.25;;;5.38;;
40198;SDS011;25906;43.536;26.068;2023-09-30T05:28:16;10.32;;;4.95;;
40198;SDS011;25906;43.536;26.068;2023-09-30T05:31:01;12.57;;;5.50;;
40198;SDS011;25906;43.536;26.068;2023-09-30T05:33:47;10.52;;;5.50;;
40198;SDS011;25906;43.536;26.068;2023-09-30T05:36:33;11.30;;;6.05;;
40198;SDS011;25906;43.536;26.068;2023-09-30T05:39:19;9.23;;;5.53;;
40198;SDS011;25906;43.536;26.068;2023-09-30T05:42:05;12.30;;;5.35;;
40198;SDS011;25906;43.536;26.068;2023-09-30T05:47:38;13.88;;;5.30;;
40198;SDS011;25906;43.536;26.068;2023-09-30T05:50:23;13.05;;;5.72;;
40198;SDS011;25906;43.536;26.068;2023-09-30T05:53:11;9.00;;;5.38;;
40198;SDS011;25906;43.536;26.068;2023-09-30T05:58:42;19.70;;;5.85;;
40198;SDS011;25906;43.536;26.068;2023-09-30T06:01:28;14.48;;;5.55;;
40198;SDS011;25906;43.536;26.068;2023-09-30T06:04:13;14.85;;;6.07;;
40198;SDS011;25906;43.536;26.068;2023-09-30T06:06:59;11.30;;;5.40;;
40198;SDS011;25906;43.536;26.068;2023-09-30T06:09:44;14.15;;;5.95;;
40198;SDS011;25906;43.536;26.068;2023-09-30T06:15:15;16.17;;;5.55;;
40198;SDS011;25906;43.536;26.068;2023-09-30T06:20:46;15.68;;;5.78;;
40198;SDS011;25906;43.536;26.068;2023-09-30T06:23:32;17.67;;;5.80;;
40198;SDS011;25906;43.536;26.068;2023-09-30T06:26:17;9.38;;;5.40;;
40198;SDS011;25906;43.536;26.068;2023-09-30T06:31:48;12.02;;;6.40;;
40198;SDS011;25906;43.536;26.068;2023-09-30T06:34:34;17.63;;;5.45;;
40198;SDS011;25906;43.536;26.068;2023-09-30T06:37:19;16.45;;;6.38;;
40198;SDS011;25906;43.536;26.068;2023-09-30T06:40:05;16.02;;;6.97;;
40198;SDS011;25906;43.536;26.068;2023-09-30T06:42:53;15.00;;;6.28;;
40198;SDS011;25906;43.536;26.068;2023-09-30T06:45:38;22.08;;;7.68;;
40198;SDS011;25906;43.536;26.068;2023-09-30T06:48:26;15.02;;;7.72;;
40198;SDS011;25906;43.536;26.068;2023-09-30T06:51:14;16.23;;;6.85;;
40198;SDS011;25906;43.536;26.068;2023-09-30T06:54:04;15.98;;;7.70;;
40198;SDS011;25906;43.536;26.068;2023-09-30T06:56:51;15.88;;;7.28;;
40198;SDS011;25906;43.536;26.068;2023-09-30T06:59:37;15.13;;;6.97;;
40198;SDS011;25906;43.536;26.068;2023-09-30T07:02:23;13.25;;;6.70;;
40198;SDS011;25906;43.536;26.068;2023-09-30T07:05:09;17.67;;;6.28;;
40198;SDS011;25906;43.536;26.068;2023-09-30T07:07:56;14.50;;;6.95;;
40198;SDS011;25906;43.536;26.068;2023-09-30T07:10:41;16.48;;;6.45;;
40198;SDS011;25906;43.536;26.068;2023-09-30T07:13:27;13.27;;;5.03;;
40198;SDS011;25906;43.536;26.068;2023-09-30T07:16:12;13.65;;;5.78;;
40198;SDS011;25906;43.536;26.068;2023-09-30T07:18:58;8.18;;;5.30;;
40198;SDS011;25906;43.536;26.068;2023-09-30T07:21:43;15.85;;;6.13;;
40198;SDS011;25906;43.536;26.068;2023-09-30T07:24:31;13.98;;;5.32;;
40198;SDS011;25906;43.536;26.068;2023-09-30T07:27:16;12.80;;;5.78;;
40198;SDS011;25906;43.536;26.068;2023-09-30T07:30:02;21.45;;;4.40;;
40198;SDS011;25906;43.536;26.068;2023-09-30T07:32:48;18.58;;;4.72;;
40198;SDS011;25906;43.536;26.068;2023-09-30T07:35:33;9.57;;;4.10;;
40198;SDS011;25906;43.536;26.068;2023-09-30T07:38:19;9.20;;;4.15;;
40198;SDS011;25906;43.536;26.068;2023-09-30T07:41:05;25.05;;;5.55;;
40198;SDS011;25906;43.536;26.068;2023-09-30T07:43:50;12.52;;;5.15;;
40198;SDS011;25906;43.536;26.068;2023-09-30T07:46:35;12.30;;;4.90;;
40198;SDS011;25906;43.536;26.068;2023-09-30T07:49:21;12.15;;;5.00;;
40198;SDS011;25906;43.536;26.068;2023-09-30T07:52:06;14.55;;;4.88;;
40198;SDS011;25906;43.536;26.068;2023-09-30T07:54:52;9.55;;;4.70;;
40198;SDS011;25906;43.536;26.068;2023-09-30T07:57:39;12.38;;;5.25;;
40198;SDS011;25906;43.536;26.068;2023-09-30T08:00:26;11.30;;;4.72;;
40198;SDS011;25906;43.536;26.068;2023-09-30T08:03:12;14.38;;;4.70;;
40198;SDS011;25906;43.536;26.068;2023-09-30T08:05:57;12.05;;;4.97;;
40198;SDS011;25906;43.536;26.068;2023-09-30T14:26:30;10.65;;;3.70;;
40198;SDS011;25906;43.536;26.068;2023-09-30T14:29:15;11.20;;;4.03;;
40198;SDS011;25906;43.536;26.068;2023-09-30T14:32:01;8.60;;;3.30;;
40198;SDS011;25906;43.536;26.068;2023-09-30T14:34:47;9.13;;;4.00;;
40198;SDS011;25906;43.536;26.068;2023-09-30T14:37:32;11.00;;;3.67;;
40198;SDS011;25906;43.536;26.068;2023-09-30T14:40:18;10.45;;;3.40;;
40198;SDS011;25906;43.536;26.068;2023-09-30T14:43:03;9.23;;;3.92;;
40198;SDS011;25906;43.536;26.068;2023-09-30T14:45:50;5.75;;;4.00;;
40198;SDS011;25906;43.536;26.068;2023-09-30T14:48:35;11.52;;;4.55;;
40198;SDS011;25906;43.536;26.068;2023-09-30T14:51:24;17.30;;;4.65;;
40198;SDS011;25906;43.536;26.068;2023-09-30T14:54:09;14.43;;;3.90;;
40198;SDS011;25906;43.536;26.068;2023-09-30T14:56:55;8.60;;;3.75;;
40198;SDS011;25906;43.536;26.068;2023-09-30T15:02:26;7.70;;;3.70;;
40198;SDS011;25906;43.536;26.068;2023-09-30T15:05:11;9.65;;;3.80;;
40198;SDS011;25906;43.536;26.068;2023-09-30T15:07:57;8.60;;;3.90;;
40198;SDS011;25906;43.536;26.068;2023-09-30T15:10:46;7.10;;;3.70;;
40198;SDS011;25906;43.536;26.068;2023-09-30T15:13:31;8.35;;;3.92;;
40198;SDS011;25906;43.536;26.068;2023-09-30T15:16:20;7.88;;;4.22;;
40198;SDS011;25906;43.536;26.068;2023-09-30T15:19:06;6.75;;;3.40;;
40198;SDS011;25906;43.536;26.068;2023-09-30T15:21:52;5.68;;;3.42;;
40198;SDS011;25906;43.536;26.068;2023-09-30T15:24:37;10.30;;;3.90;;
40198;SDS011;25906;43.536;26.068;2023-09-30T15:27:23;11.05;;;3.97;;
40198;SDS011;25906;43.536;26.068;2023-09-30T15:30:10;6.60;;;3.53;;
40198;SDS011;25906;43.536;26.068;2023-09-30T15:32:55;5.95;;;3.85;;
40198;SDS011;25906;43.536;26.068;2023-09-30T15:35:41;10.52;;;3.70;;
40198;SDS011;25906;43.536;26.068;2023-09-30T15:38:26;5.82;;;3.70;;
40198;SDS011;25906;43.536;26.068;2023-09-30T15:41:12;6.55;;;3.63;;
40198;SDS011;25906;43.536;26.068;2023-09-30T15:43:59;8.45;;;4.03;;
40198;SDS011;25906;43.536;26.068;2023-09-30T15:46:45;7.30;;;3.63;;
40198;SDS011;25906;43.536;26.068;2023-09-30T15:49:30;10.23;;;3.47;;
40198;SDS011;25906;43.536;26.068;2023-09-30T15:52:16;10.27;;;3.90;;
40198;SDS011;25906;43.536;26.068;2023-09-30T15:55:01;8.70;;;4.20;;
40198;SDS011;25906;43.536;26.068;2023-09-30T16:00:38;6.97;;;4.07;;
40198;SDS011;25906;43.536;26.068;2023-09-30T16:03:24;8.02;;;3.63;;
40198;SDS011;25906;43.536;26.068;2023-09-30T16:06:10;11.90;;;4.18;;
40198;SDS011;25906;43.536;26.068;2023-09-30T16:08:56;10.48;;;3.88;;
40198;SDS011;25906;43.536;26.068;2023-09-30T16:11:41;11.10;;;3.85;;
40198;SDS011;25906;43.536;26.068;2023-09-30T16:14:27;7.75;;;3.80;;
40198;SDS011;25906;43.536;26.068;2023-09-30T16:17:12;9.38;;;3.90;;
40198;SDS011;25906;43.536;26.068;2023-09-30T16:19:58;6.70;;;3.67;;
40198;SDS011;25906;43.536;26.068;2023-09-30T16:22:43;6.88;;;3.58;;
40198;SDS011;25906;43.536;26.068;2023-09-30T16:25:29;7.43;;;4.03;;
40198;SDS011;25906;43.536;26.068;2023-09-30T16:28:14;6.18;;;3.63;;
40198;SDS011;25906;43.536;26.068;2023-09-30T16:31:00;6.53;;;3.60;;
40198;SDS011;25906;43.536;26.068;2023-09-30T16:33:45;6.45;;;3.60;;
40198;SDS011;25906;43.536;26.068;2023-09-30T16:36:31;7.72;;;4.05;;
40198;SDS011;25906;43.536;26.068;2023-09-30T16:39:16;5.80;;;3.67;;
40198;SDS011;25906;43.536;26.068;2023-09-30T16:42:02;7.43;;;3.80;;
40198;SDS011;25906;43.536;26.068;2023-09-30T16:44:48;9.40;;;4.00;;
40198;SDS011;25906;43.536;26.068;2023-09-30T16:47:35;11.93;;;3.95;;
40198;SDS011;25906;43.536;26.068;2023-09-30T16:50:21;8.95;;;4.28;;
40198;SDS011;25906;43.536;26.068;2023-09-30T16:53:07;11.30;;;4.20;;
40198;SDS011;25906;43.536;26.068;2023-09-30T16:58:38;6.68;;;3.50;;
40198;SDS011;25906;43.536;26.068;2023-09-30T17:01:23;8.10;;;3.92;;
40198;SDS011;25906;43.536;26.068;2023-09-30T17:04:09;11.05;;;4.45;;
40198;SDS011;25906;43.536;26.068;2023-09-30T17:06:54;7.18;;;4.32;;
40198;SDS011;25906;43.536;26.068;2023-09-30T17:09:40;16.05;;;4.15;;
40198;SDS011;25906;43.536;26.068;2023-09-30T17:12:25;11.23;;;4.20;;
40198;SDS011;25906;43.536;26.068;2023-09-30T17:15:11;13.77;;;4.20;;
40198;SDS011;25906;43.536;26.068;2023-09-30T17:17:56;11.88;;;4.45;;
40198;SDS011;25906;43.536;26.068;2023-09-30T17:20:44;14.43;;;3.88;;
40198;SDS011;25906;43.536;26.068;2023-09-30T17:26:15;12.27;;;3.90;;
40198;SDS011;25906;43.536;26.068;2023-09-30T17:29:00;9.45;;;3.92;;
40198;SDS011;25906;43.536;26.068;2023-09-30T17:31:46;13.73;;;3.78;;
40198;SDS011;25906;43.536;26.068;2023-09-30T17:34:32;7.38;;;3.65;;
40198;SDS011;25906;43.536;26.068;2023-09-30T17:37:20;9.73;;;3.95;;
40198;SDS011;25906;43.536;26.068;2023-09-30T17:40:05;8.80;;;3.70;;
40198;SDS011;25906;43.536;26.068;2023-09-30T17:42:51;9.10;;;3.97;;
40198;SDS011;25906;43.536;26.068;2023-09-30T17:45:39;14.55;;;3.95;;
40198;SDS011;25906;43.536;26.068;2023-09-30T17:48:24;8.40;;;4.05;;
40198;SDS011;25906;43.536;26.068;2023-09-30T17:51:13;16.70;;;4.38;;
40198;SDS011;25906;43.536;26.068;2023-09-30T17:54:04;10.45;;;4.15;;
40198;SDS011;25906;43.536;26.068;2023-09-30T17:56:50;13.85;;;3.78;;
40198;SDS011;25906;43.536;26.068;2023-09-30T17:59:35;11.38;;;3.88;;
40198;SDS011;25906;43.536;26.068;2023-09-30T18:02:21;10.02;;;3.90;;
40198;SDS011;25906;43.536;26.068;2023-09-30T18:05:06;10.40;;;3.55;;
40198;SDS011;25906;43.536;26.068;2023-09-30T18:07:52;6.15;;;3.47;;
40198;SDS011;25906;43.536;26.068;2023-09-30T18:10:38;9.35;;;4.35;;
40198;SDS011;25906;43.536;26.068;2023-09-30T18:13:25;10.95;;;4.03;;
40198;SDS011;25906;43.536;26.068;2023-09-30T18:16:11;14.10;;;4.45;;
40198;SDS011;25906;43.536;26.068;2023-09-30T18:18:56;8.73;;;3.90;;
40198;SDS011;25906;43.536;26.068;2023-09-30T18:21:42;7.30;;;4.63;;
40198;SDS011;25906;43.536;26.068;2023-09-30T18:24:27;9.07;;;4.05;;
40198;SDS011;25906;43.536;26.068;2023-09-30T18:27:13;13.13;;;3.50;;
40198;SDS011;25906;43.536;26.068;2023-09-30T18:29:58;8.63;;;4.43;;
40198;SDS011;25906;43.536;26.068;2023-09-30T18:35:32;9.85;;;4.38;;
40198;SDS011;25906;43.536;26.068;2023-09-30T18:38:21;11.45;;;5.68;;
40198;SDS011;25906;43.536;26.068;2023-09-30T18:41:14;13.27;;;6.03;;
40198;SDS011;25906;43.536;26.068;2023-09-30T18:44:01;32.38;;;16.83;;
40198;SDS011;25906;43.536;26.068;2023-09-30T18:46:46;16.67;;;8.85;;
40198;SDS011;25906;43.536;26.068;2023-09-30T18:49:35;16.65;;;7.68;;
40198;SDS011;25906;43.536;26.068;2023-09-30T18:52:21;51.40;;;19.35;;
40198;SDS011;25906;43.536;26.068;2023-09-30T18:55:07;15.32;;;6.63;;
40198;SDS011;25906;43.536;26.068;2023-09-30T18:57:53;40.03;;;14.55;;
40198;SDS011;25906;43.536;26.068;2023-09-30T19:00:39;25.80;;;13.20;;
40198;SDS011;25906;43.536;26.068;2023-09-30T19:03:26;27.48;;;12.10;;
40198;SDS011;25906;43.536;26.068;2023-09-30T19:06:12;20.52;;;9.60;;
40198;SDS011;25906;43.536;26.068;2023-09-30T19:08:57;20.00;;;7.28;;
40198;SDS011;25906;43.536;26.068;2023-09-30T19:11:42;14.63;;;6.70;;
40198;SDS011;25906;43.536;26.068;2023-09-30T19:14:30;14.02;;;6.35;;
40198;SDS011;25906;43.536;26.068;2023-09-30T19:17:15;24.52;;;6.03;;
40198;SDS011;25906;43.536;26.068;2023-09-30T19:20:02;15.10;;;6.35;;
40198;SDS011;25906;43.536;26.068;2023-09-30T19:22:49;11.60;;;6.05;;
40198;SDS011;25906;43.536;26.068;2023-09-30T19:25:36;18.80;;;8.73;;
40198;SDS011;25906;43.536;26.068;2023-09-30T19:28:22;22.50;;;8.80;;
40198;SDS011;25906;43.536;26.068;2023-09-30T19:31:13;20.13;;;8.40;;
40198;SDS011;25906;43.536;26.068;2023-09-30T19:34:00;21.92;;;9.98;;
40198;SDS011;25906;43.536;26.068;2023-09-30T19:36:46;26.13;;;10.40;;
40198;SDS011;25906;43.536;26.068;2023-09-30T19:39:32;25.02;;;11.52;;
40198;SDS011;25906;43.536;26.068;2023-09-30T19:42:17;30.65;;;11.48;;
40198;SDS011;25906;43.536;26.068;2023-09-30T19:45:03;32.78;;;14.90;;
40198;SDS011;25906;43.536;26.068;2023-09-30T19:47:49;39.15;;;16.98;;
40198;SDS011;25906;43.536;26.068;2023-09-30T19:50:34;46.95;;;18.10;;
40198;SDS011;25906;43.536;26.068;2023-09-30T19:53:20;47.05;;;17.88;;
40198;SDS011;25906;43.536;26.068;2023-09-30T19:56:06;50.88;;;20.38;;
40198;SDS011;25906;43.536;26.068;2023-09-30T19:58:54;55.38;;;20.25;;
40198;SDS011;25906;43.536;26.068;2023-09-30T20:01:40;49.88;;;23.33;;
40198;SDS011;25906;43.536;26.068;2023-09-30T20:04:25;73.53;;;26.77;;
40198;SDS011;25906;43.536;26.068;2023-09-30T20:07:11;63.67;;;27.75;;
40198;SDS011;25906;43.536;26.068;2023-09-30T20:09:57;68.60;;;27.20;;
40198;SDS011;25906;43.536;26.068;2023-09-30T20:12:43;63.97;;;27.73;;
40198;SDS011;25906;43.536;26.068;2023-09-30T20:15:28;66.90;;;26.95;;
40198;SDS011;25906;43.536;26.068;2023-09-30T20:18:15;58.58;;;25.73;;
40198;SDS011;25906;43.536;26.068;2023-09-30T20:21:01;52.28;;;23.23;;
40198;SDS011;25906;43.536;26.068;2023-09-30T20:23:46;51.22;;;22.10;;
40198;SDS011;25906;43.536;26.068;2023-09-30T20:26:34;53.15;;;22.15;;
40198;SDS011;25906;43.536;26.068;2023-09-30T20:29:20;62.92;;;22.95;;
40198;SDS011;25906;43.536;26.068;2023-09-30T20:32:05;49.25;;;21.52;;
40198;SDS011;25906;43.536;26.068;2023-09-30T20:34:51;45.20;;;19.33;;
40198;SDS011;25906;43.536;26.068;2023-09-30T20:37:37;44.85;;;17.80;;
40198;SDS011;25906;43.536;26.068;2023-09-30T20:40:23;41.67;;;17.08;;
40198;SDS011;25906;43.536;26.068;2023-09-30T20:43:08;39.25;;;16.33;;
40198;SDS011;25906;43.536;26.068;2023-09-30T20:45:54;32.88;;;16.90;;
40198;SDS011;25906;43.536;26.068;2023-09-30T20:48:39;33.42;;;14.43;;
40198;SDS011;25906;43.536;26.068;2023-09-30T20:51:27;31.95;;;13.88;;
40198;SDS011;25906;43.536;26.068;2023-09-30T20:54:12;34.65;;;14.77;;
40198;SDS011;25906;43.536;26.068;2023-09-30T20:56:58;34.45;;;14.73;;
40198;SDS011;25906;43.536;26.068;2023-09-30T20:59:44;44.45;;;16.58;;
40198;SDS011;25906;43.536;26.068;2023-09-30T21:02:30;39.00;;;16.48;;
40198;SDS011;25906;43.536;26.068;2023-09-30T21:05:17;36.00;;;16.40;;
40198;SDS011;25906;43.536;26.068;2023-09-30T21:08:03;36.10;;;15.82;;
40198;SDS011;25906;43.536;26.068;2023-09-30T21:10:49;38.78;;;16.10;;
40198;SDS011;25906;43.536;26.068;2023-09-30T21:13:35;39.15;;;15.32;;
40198;SDS011;25906;43.536;26.068;2023-09-30T21:16:20;39.95;;;15.50;;
40198;SDS011;25906;43.536;26.068;2023-09-30T21:19:08;37.10;;;15.95;;
40198;SDS011;25906;43.536;26.068;2023-09-30T21:21:55;40.85;;;16.45;;
40198;SDS011;25906;43.536;26.068;2023-09-30T21:24:40;36.38;;;17.88;;
40198;SDS011;25906;43.536;26.068;2023-09-30T21:27:26;32.85;;;15.35;;
40198;SDS011;25906;43.536;26.068;2023-09-30T21:30:12;35.40;;;15.15;;
40198;SDS011;25906;43.536;26.068;2023-09-30T21:32:58;26.50;;;12.05;;
40198;SDS011;25906;43.536;26.068;2023-09-30T21:35:52;27.77;;;12.95;;
40198;SDS011;25906;43.536;26.068;2023-09-30T21:38:39;25.05;;;11.93;;
40198;SDS011;25906;43.536;26.068;2023-09-30T21:41:24;40.67;;;12.05;;
40198;SDS011;25906;43.536;26.068;2023-09-30T21:44:10;27.88;;;12.15;;
40198;SDS011;25906;43.536;26.068;2023-09-30T21:46:57;24.50;;;11.57;;
40198;SDS011;25906;43.536;26.068;2023-09-30T21:49:42;27.75;;;11.43;;
40198;SDS011;25906;43.536;26.068;2023-09-30T21:52:28;32.33;;;11.32;;
40198;SDS011;25906;43.536;26.068;2023-09-30T21:55:13;27.92;;;11.27;;
40198;SDS011;25906;43.536;26.068;2023-09-30T21:57:59;33.80;;;13.13;;
40198;SDS011;25906;43.536;26.068;2023-09-30T22:00:44;32.17;;;12.25;;
40198;SDS011;25906;43.536;26.068;2023-09-30T22:03:32;33.60;;;12.65;;
40198;SDS011;25906;43.536;26.068;2023-09-30T22:06:18;31.05;;;12.23;;
40198;SDS011;25906;43.536;26.068;2023-09-30T22:09:03;23.70;;;11.32;;
40198;SDS011;25906;43.536;26.068;2023-09-30T22:11:49;28.60;;;9.25;;
40198;SDS011;25906;43.536;26.068;2023-09-30T22:14:37;26.23;;;11.48;;
40198;SDS011;25906;43.536;26.068;2023-09-30T22:17:22;23.52;;;11.80;;
40198;SDS011;25906;43.536;26.068;2023-09-30T22:20:08;24.30;;;12.75;;
40198;SDS011;25906;43.536;26.068;2023-09-30T22:22:55;32.70;;;13.43;;
40198;SDS011;25906;43.536;26.068;2023-09-30T22:25:41;25.50;;;12.18;;
40198;SDS011;25906;43.536;26.068;2023-09-30T22:28:26;27.92;;;12.85;;
40198;SDS011;25906;43.536;26.068;2023-09-30T22:31:12;33.65;;;12.95;;
40198;SDS011;25906;43.536;26.068;2023-09-30T22:33:59;27.23;;;11.93;;
40198;SDS011;25906;43.536;26.068;2023-09-30T22:36:45;21.40;;;8.88;;
40198;SDS011;25906;43.536;26.068;2023-09-30T22:39:31;17.00;;;8.55;;
40198;SDS011;25906;43.536;26.068;2023-09-30T22:42:17;18.30;;;8.25;;
40198;SDS011;25906;43.536;26.068;2023-09-30T22:45:05;16.73;;;8.00;;
40198;SDS011;25906;43.536;26.068;2023-09-30T22:47:51;22.98;;;9.18;;
40198;SDS011;25906;43.536;26.068;2023-09-30T22:50:38;27.02;;;9.20;;
40198;SDS011;25906;43.536;26.068;2023-09-30T22:53:23;26.70;;;8.85;;
40198;SDS011;25906;43.536;26.068;2023-09-30T22:56:09;24.65;;;7.82;;
40198;SDS011;25906;43.536;26.068;2023-09-30T22:58:59;23.80;;;7.68;;
40198;SDS011;25906;43.536;26.068;2023-09-30T23:01:45;10.75;;;6.28;;
40198;SDS011;25906;43.536;26.068;2023-09-30T23:04:31;13.63;;;6.25;;
40198;SDS011;25906;43.536;26.068;2023-09-30T23:07:16;22.23;;;7.13;;
40198;SDS011;25906;43.536;26.068;2023-09-30T23:10:04;11.88;;;6.80;;
40198;SDS011;25906;43.536;26.068;2023-09-30T23:12:50;10.63;;;6.32;;
40198;SDS011;25906;43.536;26.068;2023-09-30T23:15:36;13.63;;;6.25;;